sensor_id;sensor_type;location;lat;lon;timestamp;P1;durP1;ratioP1;P2;durP2;ratioP2
28766;SDS011;15921;52.034;20.650;2022-09-29T00:01:06;23.27;;;12.57;;
28766;SDS011;15921;52.034;20.650;2022-09-29T00:03:32;22.80;;;13.38;;
28766;SDS011;15921;52.034;20.650;2022-09-29T00:05:58;24.23;;;12.88;;
28766;SDS011;15921;52.034;20.650;2022-09-29T00:08:26;26.15;;;12.10;;
28766;SDS011;15921;52.034;20.650;2022-09-29T00:10:52;24.30;;;13.05;;
28766;SDS011;15921;52.034;20.650;2022-09-29T00:13:18;25.55;;;13.50;;
28766;SDS011;15921;52.034;20.650;2022-09-29T00:15:53;30.92;;;13.82;;
28766;SDS011;15921;52.034;20.650;2022-09-29T00:18:20;23.48;;;12.32;;
28766;SDS011;15921;52.034;20.650;2022-09-29T00:20:54;25.63;;;12.98;;
28766;SDS011;15921;52.034;20.650;2022-09-29T00:23:28;25.70;;;14.32;;
28766;SDS011;15921;52.034;20.650;2022-09-29T00:26:02;21.85;;;12.65;;
28766;SDS011;15921;52.034;20.650;2022-09-29T00:28:33;29.13;;;14.68;;
28766;SDS011;15921;52.034;20.650;2022-09-29T00:31:01;36.30;;;16.00;;
28766;SDS011;15921;52.034;20.650;2022-09-29T00:33:31;28.23;;;14.32;;
28766;SDS011;15921;52.034;20.650;2022-09-29T00:36:00;25.40;;;13.57;;
28766;SDS011;15921;52.034;20.650;2022-09-29T00:38:27;26.83;;;14.15;;
28766;SDS011;15921;52.034;20.650;2022-09-29T00:40:54;25.40;;;12.65;;
28766;SDS011;15921;52.034;20.650;2022-09-29T00:43:21;28.35;;;13.48;;
28766;SDS011;15921;52.034;20.650;2022-09-29T00:46:26;24.90;;;12.32;;
28766;SDS011;15921;52.034;20.650;2022-09-29T00:49:04;23.00;;;13.35;;
28766;SDS011;15921;52.034;20.650;2022-09-29T00:51:53;23.70;;;13.35;;
28766;SDS011;15921;52.034;20.650;2022-09-29T00:54:28;19.15;;;11.15;;
28766;SDS011;15921;52.034;20.650;2022-09-29T00:56:59;25.97;;;13.87;;
28766;SDS011;15921;52.034;20.650;2022-09-29T00:59:31;20.90;;;11.75;;
28766;SDS011;15921;52.034;20.650;2022-09-29T01:02:22;27.20;;;13.85;;
28766;SDS011;15921;52.034;20.650;2022-09-29T01:04:48;27.75;;;12.95;;
28766;SDS011;15921;52.034;20.650;2022-09-29T01:07:18;24.92;;;13.90;;
28766;SDS011;15921;52.034;20.650;2022-09-29T01:09:48;26.95;;;13.85;;
28766;SDS011;15921;52.034;20.650;2022-09-29T01:12:17;32.92;;;14.77;;
28766;SDS011;15921;52.034;20.650;2022-09-29T01:14:43;28.85;;;14.20;;
28766;SDS011;15921;52.034;20.650;2022-09-29T01:17:10;25.50;;;13.80;;
28766;SDS011;15921;52.034;20.650;2022-09-29T01:27:53;29.38;;;11.98;;
28766;SDS011;15921;52.034;20.650;2022-09-29T01:44:07;31.75;;;14.00;;
28766;SDS011;15921;52.034;20.650;2022-09-29T01:49:06;24.35;;;13.23;;
28766;SDS011;15921;52.034;20.650;2022-09-29T01:54:03;25.95;;;14.15;;
28766;SDS011;15921;52.034;20.650;2022-09-29T01:56:35;27.23;;;13.77;;
28766;SDS011;15921;52.034;20.650;2022-09-29T02:02:02;24.73;;;12.80;;
28766;SDS011;15921;52.034;20.650;2022-09-29T02:04:40;35.70;;;15.45;;
28766;SDS011;15921;52.034;20.650;2022-09-29T02:07:17;22.95;;;11.48;;
28766;SDS011;15921;52.034;20.650;2022-09-29T02:09:48;29.02;;;13.60;;
28766;SDS011;15921;52.034;20.650;2022-09-29T02:12:22;25.52;;;13.13;;
28766;SDS011;15921;52.034;20.650;2022-09-29T02:14:51;28.52;;;13.88;;
28766;SDS011;15921;52.034;20.650;2022-09-29T02:17:20;27.83;;;14.60;;
28766;SDS011;15921;52.034;20.650;2022-09-29T02:19:50;28.73;;;13.50;;
28766;SDS011;15921;52.034;20.650;2022-09-29T02:22:16;31.40;;;13.65;;
28766;SDS011;15921;52.034;20.650;2022-09-29T02:24:43;28.83;;;14.63;;
28766;SDS011;15921;52.034;20.650;2022-09-29T02:27:09;27.30;;;13.68;;
28766;SDS011;15921;52.034;20.650;2022-09-29T02:29:36;29.83;;;14.50;;
28766;SDS011;15921;52.034;20.650;2022-09-29T02:32:03;32.97;;;15.25;;
28766;SDS011;15921;52.034;20.650;2022-09-29T02:34:31;28.58;;;14.57;;
28766;SDS011;15921;52.034;20.650;2022-09-29T02:37:05;33.45;;;14.30;;
28766;SDS011;15921;52.034;20.650;2022-09-29T02:47:57;28.67;;;13.70;;
28766;SDS011;15921;52.034;20.650;2022-09-29T03:01:49;27.25;;;12.77;;
28766;SDS011;15921;52.034;20.650;2022-09-29T03:04:20;22.95;;;12.77;;
28766;SDS011;15921;52.034;20.650;2022-09-29T03:06:48;24.92;;;12.63;;
28766;SDS011;15921;52.034;20.650;2022-09-29T03:09:13;27.17;;;13.27;;
28766;SDS011;15921;52.034;20.650;2022-09-29T03:11:39;22.63;;;13.02;;
28766;SDS011;15921;52.034;20.650;2022-09-29T03:14:05;21.10;;;12.27;;
28766;SDS011;15921;52.034;20.650;2022-09-29T03:16:32;24.38;;;12.70;;
28766;SDS011;15921;52.034;20.650;2022-09-29T03:18:58;26.17;;;13.02;;
28766;SDS011;15921;52.034;20.650;2022-09-29T03:21:24;23.77;;;11.77;;
28766;SDS011;15921;52.034;20.650;2022-09-29T03:23:50;24.13;;;12.30;;
28766;SDS011;15921;52.034;20.650;2022-09-29T03:26:15;20.55;;;11.23;;
28766;SDS011;15921;52.034;20.650;2022-09-29T03:28:41;22.88;;;12.20;;
28766;SDS011;15921;52.034;20.650;2022-09-29T03:31:07;19.38;;;12.45;;
28766;SDS011;15921;52.034;20.650;2022-09-29T03:33:37;25.67;;;11.77;;
28766;SDS011;15921;52.034;20.650;2022-09-29T03:36:04;24.98;;;11.73;;
28766;SDS011;15921;52.034;20.650;2022-09-29T03:38:31;22.80;;;12.75;;
28766;SDS011;15921;52.034;20.650;2022-09-29T03:40:57;18.90;;;11.25;;
28766;SDS011;15921;52.034;20.650;2022-09-29T03:43:23;20.67;;;11.75;;
28766;SDS011;15921;52.034;20.650;2022-09-29T03:45:49;22.67;;;12.27;;
28766;SDS011;15921;52.034;20.650;2022-09-29T03:48:17;19.98;;;11.13;;
28766;SDS011;15921;52.034;20.650;2022-09-29T03:50:43;20.05;;;11.45;;
28766;SDS011;15921;52.034;20.650;2022-09-29T03:53:10;20.13;;;11.77;;
28766;SDS011;15921;52.034;20.650;2022-09-29T03:55:36;21.00;;;11.60;;
28766;SDS011;15921;52.034;20.650;2022-09-29T03:58:01;23.20;;;11.90;;
28766;SDS011;15921;52.034;20.650;2022-09-29T04:00:27;23.55;;;12.32;;
28766;SDS011;15921;52.034;20.650;2022-09-29T04:02:53;21.77;;;12.18;;
28766;SDS011;15921;52.034;20.650;2022-09-29T04:05:19;23.02;;;12.07;;
28766;SDS011;15921;52.034;20.650;2022-09-29T04:07:45;20.58;;;10.98;;
28766;SDS011;15921;52.034;20.650;2022-09-29T04:10:11;19.45;;;11.32;;
28766;SDS011;15921;52.034;20.650;2022-09-29T04:12:36;24.98;;;12.15;;
28766;SDS011;15921;52.034;20.650;2022-09-29T04:15:02;24.52;;;12.57;;
28766;SDS011;15921;52.034;20.650;2022-09-29T04:17:28;20.55;;;11.02;;
28766;SDS011;15921;52.034;20.650;2022-09-29T04:19:54;26.23;;;11.55;;
28766;SDS011;15921;52.034;20.650;2022-09-29T04:22:20;21.13;;;12.05;;
28766;SDS011;15921;52.034;20.650;2022-09-29T04:24:45;22.80;;;11.52;;
28766;SDS011;15921;52.034;20.650;2022-09-29T04:27:16;23.98;;;11.85;;
28766;SDS011;15921;52.034;20.650;2022-09-29T04:29:42;21.17;;;11.48;;
28766;SDS011;15921;52.034;20.650;2022-09-29T04:32:08;21.85;;;11.15;;
28766;SDS011;15921;52.034;20.650;2022-09-29T04:34:34;23.20;;;12.48;;
28766;SDS011;15921;52.034;20.650;2022-09-29T04:37:00;22.45;;;11.40;;
28766;SDS011;15921;52.034;20.650;2022-09-29T04:39:27;20.08;;;11.60;;
28766;SDS011;15921;52.034;20.650;2022-09-29T04:41:52;21.33;;;11.38;;
28766;SDS011;15921;52.034;20.650;2022-09-29T04:44:18;21.80;;;11.63;;
28766;SDS011;15921;52.034;20.650;2022-09-29T04:46:48;19.17;;;10.93;;
28766;SDS011;15921;52.034;20.650;2022-09-29T04:49:14;22.05;;;12.00;;
28766;SDS011;15921;52.034;20.650;2022-09-29T04:51:40;21.83;;;12.48;;
28766;SDS011;15921;52.034;20.650;2022-09-29T04:54:05;26.20;;;12.90;;
28766;SDS011;15921;52.034;20.650;2022-09-29T04:56:31;26.83;;;13.00;;
28766;SDS011;15921;52.034;20.650;2022-09-29T04:58:57;20.13;;;12.00;;
28766;SDS011;15921;52.034;20.650;2022-09-29T05:01:23;20.90;;;13.18;;
28766;SDS011;15921;52.034;20.650;2022-09-29T05:03:50;23.52;;;13.30;;
28766;SDS011;15921;52.034;20.650;2022-09-29T05:06:15;25.73;;;12.77;;
28766;SDS011;15921;52.034;20.650;2022-09-29T05:08:41;22.48;;;13.45;;
28766;SDS011;15921;52.034;20.650;2022-09-29T05:11:07;25.00;;;13.43;;
28766;SDS011;15921;52.034;20.650;2022-09-29T05:13:34;24.85;;;12.30;;
28766;SDS011;15921;52.034;20.650;2022-09-29T05:16:00;26.13;;;14.15;;
28766;SDS011;15921;52.034;20.650;2022-09-29T05:18:27;27.95;;;14.43;;
28766;SDS011;15921;52.034;20.650;2022-09-29T05:20:53;26.23;;;14.40;;
28766;SDS011;15921;52.034;20.650;2022-09-29T05:23:19;26.73;;;15.23;;
28766;SDS011;15921;52.034;20.650;2022-09-29T05:25:45;26.25;;;14.70;;
28766;SDS011;15921;52.034;20.650;2022-09-29T05:28:12;25.45;;;14.27;;
28766;SDS011;15921;52.034;20.650;2022-09-29T05:30:39;23.33;;;13.75;;
28766;SDS011;15921;52.034;20.650;2022-09-29T05:33:06;24.15;;;14.13;;
28766;SDS011;15921;52.034;20.650;2022-09-29T05:35:32;24.52;;;13.90;;
28766;SDS011;15921;52.034;20.650;2022-09-29T05:37:58;25.92;;;15.60;;
28766;SDS011;15921;52.034;20.650;2022-09-29T05:40:23;26.95;;;14.43;;
28766;SDS011;15921;52.034;20.650;2022-09-29T05:42:49;26.30;;;15.00;;
28766;SDS011;15921;52.034;20.650;2022-09-29T05:45:16;23.23;;;13.80;;
28766;SDS011;15921;52.034;20.650;2022-09-29T05:47:42;27.50;;;14.52;;
28766;SDS011;15921;52.034;20.650;2022-09-29T05:50:09;26.60;;;15.35;;
28766;SDS011;15921;52.034;20.650;2022-09-29T05:52:38;29.70;;;15.93;;
28766;SDS011;15921;52.034;20.650;2022-09-29T05:55:04;27.77;;;15.50;;
28766;SDS011;15921;52.034;20.650;2022-09-29T05:57:33;32.50;;;16.45;;
28766;SDS011;15921;52.034;20.650;2022-09-29T06:00:00;28.52;;;15.00;;
28766;SDS011;15921;52.034;20.650;2022-09-29T06:02:26;29.77;;;15.05;;
28766;SDS011;15921;52.034;20.650;2022-09-29T06:04:52;29.23;;;16.08;;
28766;SDS011;15921;52.034;20.650;2022-09-29T06:07:17;30.15;;;17.17;;
28766;SDS011;15921;52.034;20.650;2022-09-29T06:09:43;33.80;;;17.08;;
28766;SDS011;15921;52.034;20.650;2022-09-29T06:12:09;29.60;;;16.77;;
28766;SDS011;15921;52.034;20.650;2022-09-29T06:14:35;30.17;;;16.05;;
28766;SDS011;15921;52.034;20.650;2022-09-29T06:17:01;36.28;;;18.55;;
28766;SDS011;15921;52.034;20.650;2022-09-29T06:19:26;30.08;;;18.08;;
28766;SDS011;15921;52.034;20.650;2022-09-29T06:21:52;34.88;;;17.92;;
28766;SDS011;15921;52.034;20.650;2022-09-29T06:24:18;32.88;;;18.52;;
28766;SDS011;15921;52.034;20.650;2022-09-29T06:26:43;32.90;;;17.27;;
28766;SDS011;15921;52.034;20.650;2022-09-29T06:29:09;31.15;;;17.52;;
28766;SDS011;15921;52.034;20.650;2022-09-29T06:31:35;35.42;;;18.13;;
28766;SDS011;15921;52.034;20.650;2022-09-29T06:34:02;33.58;;;18.30;;
28766;SDS011;15921;52.034;20.650;2022-09-29T06:39:21;32.07;;;18.30;;
28766;SDS011;15921;52.034;20.650;2022-09-29T06:41:47;32.05;;;17.33;;
28766;SDS011;15921;52.034;20.650;2022-09-29T06:44:17;34.55;;;19.35;;
28766;SDS011;15921;52.034;20.650;2022-09-29T06:46:43;31.27;;;18.23;;
28766;SDS011;15921;52.034;20.650;2022-09-29T06:49:12;31.55;;;17.85;;
28766;SDS011;15921;52.034;20.650;2022-09-29T06:51:39;29.77;;;18.35;;
28766;SDS011;15921;52.034;20.650;2022-09-29T06:54:05;28.98;;;17.55;;
28766;SDS011;15921;52.034;20.650;2022-09-29T06:56:30;25.38;;;15.93;;
28766;SDS011;15921;52.034;20.650;2022-09-29T06:58:56;26.58;;;16.52;;
28766;SDS011;15921;52.034;20.650;2022-09-29T07:01:22;25.58;;;15.85;;
28766;SDS011;15921;52.034;20.650;2022-09-29T07:03:48;24.30;;;14.43;;
28766;SDS011;15921;52.034;20.650;2022-09-29T07:06:14;25.10;;;14.73;;
28766;SDS011;15921;52.034;20.650;2022-09-29T07:08:39;23.38;;;13.35;;
28766;SDS011;15921;52.034;20.650;2022-09-29T07:11:08;25.98;;;14.75;;
28766;SDS011;15921;52.034;20.650;2022-09-29T07:13:35;24.02;;;15.38;;
28766;SDS011;15921;52.034;20.650;2022-09-29T07:16:02;23.33;;;14.32;;
28766;SDS011;15921;52.034;20.650;2022-09-29T07:18:33;21.23;;;13.60;;
28766;SDS011;15921;52.034;20.650;2022-09-29T07:20:59;21.48;;;13.32;;
28766;SDS011;15921;52.034;20.650;2022-09-29T07:23:25;23.80;;;14.75;;
28766;SDS011;15921;52.034;20.650;2022-09-29T07:25:51;21.65;;;14.55;;
28766;SDS011;15921;52.034;20.650;2022-09-29T07:28:17;20.63;;;13.70;;
28766;SDS011;15921;52.034;20.650;2022-09-29T07:30:43;25.13;;;13.70;;
28766;SDS011;15921;52.034;20.650;2022-09-29T07:33:09;22.08;;;13.93;;
28766;SDS011;15921;52.034;20.650;2022-09-29T07:35:35;19.40;;;12.68;;
28766;SDS011;15921;52.034;20.650;2022-09-29T07:38:00;20.67;;;13.50;;
28766;SDS011;15921;52.034;20.650;2022-09-29T07:40:26;18.52;;;12.70;;
28766;SDS011;15921;52.034;20.650;2022-09-29T07:42:52;19.90;;;12.40;;
28766;SDS011;15921;52.034;20.650;2022-09-29T07:45:18;20.70;;;13.30;;
28766;SDS011;15921;52.034;20.650;2022-09-29T07:47:44;17.98;;;12.27;;
28766;SDS011;15921;52.034;20.650;2022-09-29T07:50:10;17.55;;;11.85;;
28766;SDS011;15921;52.034;20.650;2022-09-29T07:52:36;17.92;;;12.43;;
28766;SDS011;15921;52.034;20.650;2022-09-29T07:55:02;21.20;;;13.27;;
28766;SDS011;15921;52.034;20.650;2022-09-29T07:57:29;20.88;;;12.98;;
28766;SDS011;15921;52.034;20.650;2022-09-29T07:59:55;20.40;;;13.77;;
28766;SDS011;15921;52.034;20.650;2022-09-29T08:02:23;21.33;;;14.00;;
28766;SDS011;15921;52.034;20.650;2022-09-29T08:04:49;22.73;;;13.45;;
28766;SDS011;15921;52.034;20.650;2022-09-29T08:07:15;21.52;;;13.40;;
28766;SDS011;15921;52.034;20.650;2022-09-29T08:09:40;22.13;;;13.32;;
28766;SDS011;15921;52.034;20.650;2022-09-29T08:12:07;21.48;;;14.13;;
28766;SDS011;15921;52.034;20.650;2022-09-29T08:14:33;24.67;;;14.88;;
28766;SDS011;15921;52.034;20.650;2022-09-29T08:16:59;24.88;;;16.15;;
28766;SDS011;15921;52.034;20.650;2022-09-29T08:19:24;24.48;;;15.50;;
28766;SDS011;15921;52.034;20.650;2022-09-29T08:21:52;25.67;;;17.17;;
28766;SDS011;15921;52.034;20.650;2022-09-29T08:24:18;25.23;;;16.38;;
28766;SDS011;15921;52.034;20.650;2022-09-29T08:26:43;24.85;;;16.77;;
28766;SDS011;15921;52.034;20.650;2022-09-29T08:29:10;26.55;;;16.67;;
28766;SDS011;15921;52.034;20.650;2022-09-29T08:31:36;24.90;;;16.73;;
28766;SDS011;15921;52.034;20.650;2022-09-29T08:34:02;27.83;;;17.25;;
28766;SDS011;15921;52.034;20.650;2022-09-29T08:36:28;25.70;;;16.50;;
28766;SDS011;15921;52.034;20.650;2022-09-29T08:38:55;28.13;;;17.17;;
28766;SDS011;15921;52.034;20.650;2022-09-29T08:41:29;21.52;;;14.43;;
28766;SDS011;15921;52.034;20.650;2022-09-29T08:47:13;22.98;;;15.73;;
28766;SDS011;15921;52.034;20.650;2022-09-29T08:49:45;27.92;;;15.82;;
28766;SDS011;15921;52.034;20.650;2022-09-29T08:52:39;22.73;;;15.13;;
28766;SDS011;15921;52.034;20.650;2022-09-29T08:57:43;23.98;;;15.07;;
28766;SDS011;15921;52.034;20.650;2022-09-29T09:00:13;19.67;;;13.70;;
28766;SDS011;15921;52.034;20.650;2022-09-29T09:08:15;23.45;;;13.70;;
28766;SDS011;15921;52.034;20.650;2022-09-29T09:10:48;16.58;;;11.55;;
28766;SDS011;15921;52.034;20.650;2022-09-29T09:21:45;16.10;;;10.40;;
28766;SDS011;15921;52.034;20.650;2022-09-29T09:24:22;18.30;;;10.80;;
28766;SDS011;15921;52.034;20.650;2022-09-29T09:27:06;15.57;;;9.88;;
28766;SDS011;15921;52.034;20.650;2022-09-29T09:29:41;15.82;;;10.45;;
28766;SDS011;15921;52.034;20.650;2022-09-29T09:32:09;15.82;;;10.93;;
28766;SDS011;15921;52.034;20.650;2022-09-29T09:34:50;17.50;;;11.75;;
28766;SDS011;15921;52.034;20.650;2022-09-29T09:37:38;16.05;;;10.60;;
28766;SDS011;15921;52.034;20.650;2022-09-29T09:40:12;13.45;;;9.38;;
28766;SDS011;15921;52.034;20.650;2022-09-29T09:42:46;13.23;;;8.60;;
28766;SDS011;15921;52.034;20.650;2022-09-29T09:45:27;13.32;;;9.70;;
28766;SDS011;15921;52.034;20.650;2022-09-29T09:48:05;15.40;;;9.48;;
28766;SDS011;15921;52.034;20.650;2022-09-29T09:50:39;12.88;;;8.77;;
28766;SDS011;15921;52.034;20.650;2022-09-29T09:55:48;14.50;;;9.68;;
28766;SDS011;15921;52.034;20.650;2022-09-29T09:58:41;14.15;;;8.13;;
28766;SDS011;15921;52.034;20.650;2022-09-29T10:01:22;16.00;;;9.93;;
28766;SDS011;15921;52.034;20.650;2022-09-29T10:03:50;14.60;;;9.68;;
28766;SDS011;15921;52.034;20.650;2022-09-29T10:06:17;12.73;;;9.30;;
28766;SDS011;15921;52.034;20.650;2022-09-29T10:08:43;22.38;;;13.60;;
28766;SDS011;15921;52.034;20.650;2022-09-29T10:11:23;30.42;;;17.73;;
28766;SDS011;15921;52.034;20.650;2022-09-29T10:13:58;11.15;;;8.15;;
28766;SDS011;15921;52.034;20.650;2022-09-29T10:16:52;12.40;;;8.15;;
28766;SDS011;15921;52.034;20.650;2022-09-29T10:19:28;10.80;;;7.72;;
28766;SDS011;15921;52.034;20.650;2022-09-29T10:22:17;10.40;;;5.72;;
28766;SDS011;15921;52.034;20.650;2022-09-29T10:24:44;11.77;;;8.45;;
28766;SDS011;15921;52.034;20.650;2022-09-29T10:27:10;9.80;;;7.32;;
28766;SDS011;15921;52.034;20.650;2022-09-29T10:29:42;11.15;;;8.15;;
28766;SDS011;15921;52.034;20.650;2022-09-29T10:32:29;11.75;;;8.18;;
28766;SDS011;15921;52.034;20.650;2022-09-29T10:37:41;14.20;;;9.43;;
28766;SDS011;15921;52.034;20.650;2022-09-29T10:40:13;16.85;;;10.82;;
28766;SDS011;15921;52.034;20.650;2022-09-29T10:42:46;15.32;;;10.10;;
28766;SDS011;15921;52.034;20.650;2022-09-29T10:47:46;16.13;;;9.68;;
28766;SDS011;15921;52.034;20.650;2022-09-29T10:50:22;14.75;;;10.25;;
28766;SDS011;15921;52.034;20.650;2022-09-29T10:55:29;15.38;;;10.07;;
28766;SDS011;15921;52.034;20.650;2022-09-29T10:57:58;14.88;;;10.52;;
28766;SDS011;15921;52.034;20.650;2022-09-29T11:00:35;15.43;;;10.55;;
28766;SDS011;15921;52.034;20.650;2022-09-29T11:03:07;17.60;;;11.60;;
28766;SDS011;15921;52.034;20.650;2022-09-29T11:06:04;17.48;;;11.60;;
28766;SDS011;15921;52.034;20.650;2022-09-29T11:11:27;15.00;;;10.40;;
28766;SDS011;15921;52.034;20.650;2022-09-29T11:13:59;15.65;;;10.25;;
28766;SDS011;15921;52.034;20.650;2022-09-29T11:18:57;12.25;;;9.30;;
28766;SDS011;15921;52.034;20.650;2022-09-29T11:29:30;9.63;;;7.13;;
28766;SDS011;15921;52.034;20.650;2022-09-29T11:43:55;9.90;;;6.90;;
28766;SDS011;15921;52.034;20.650;2022-09-29T12:08:51;9.93;;;7.25;;
28766;SDS011;15921;52.034;20.650;2022-09-29T12:17:47;10.10;;;6.93;;
28766;SDS011;15921;52.034;20.650;2022-09-29T12:22:51;9.38;;;6.53;;
28766;SDS011;15921;52.034;20.650;2022-09-29T12:25:20;7.45;;;6.13;;
28766;SDS011;15921;52.034;20.650;2022-09-29T12:27:50;11.85;;;7.90;;
28766;SDS011;15921;52.034;20.650;2022-09-29T12:30:29;5.82;;;5.10;;
28766;SDS011;15921;52.034;20.650;2022-09-29T12:33:12;7.90;;;6.30;;
28766;SDS011;15921;52.034;20.650;2022-09-29T12:35:59;14.18;;;8.68;;
28766;SDS011;15921;52.034;20.650;2022-09-29T12:38:55;10.85;;;4.90;;
28766;SDS011;15921;52.034;20.650;2022-09-29T12:41:29;8.35;;;6.28;;
28766;SDS011;15921;52.034;20.650;2022-09-29T12:46:41;7.95;;;5.47;;
28766;SDS011;15921;52.034;20.650;2022-09-29T12:52:16;5.15;;;4.45;;
28766;SDS011;15921;52.034;20.650;2022-09-29T12:54:53;5.15;;;4.65;;
28766;SDS011;15921;52.034;20.650;2022-09-29T12:57:25;4.43;;;3.50;;
28766;SDS011;15921;52.034;20.650;2022-09-29T12:59:58;5.05;;;4.50;;
28766;SDS011;15921;52.034;20.650;2022-09-29T13:27:18;68.28;;;31.50;;
28766;SDS011;15921;52.034;20.650;2022-09-29T13:32:42;8.02;;;5.72;;
28766;SDS011;15921;52.034;20.650;2022-09-29T13:35:29;14.98;;;7.05;;
28766;SDS011;15921;52.034;20.650;2022-09-29T13:38:16;15.02;;;8.68;;
28766;SDS011;15921;52.034;20.650;2022-09-29T13:44:01;158.27;;;54.42;;
28766;SDS011;15921;52.034;20.650;2022-09-29T13:51:47;94.88;;;35.45;;
28766;SDS011;15921;52.034;20.650;2022-09-29T13:57:29;86.38;;;31.92;;
28766;SDS011;15921;52.034;20.650;2022-09-29T14:02:27;41.95;;;18.92;;
28766;SDS011;15921;52.034;20.650;2022-09-29T14:05:00;14.05;;;6.60;;
28766;SDS011;15921;52.034;20.650;2022-09-29T14:13:04;10.60;;;6.50;;
28766;SDS011;15921;52.034;20.650;2022-09-29T14:15:42;8.30;;;6.03;;
28766;SDS011;15921;52.034;20.650;2022-09-29T14:21:03;8.05;;;6.10;;
28766;SDS011;15921;52.034;20.650;2022-09-29T14:29:31;10.05;;;7.85;;
28766;SDS011;15921;52.034;20.650;2022-09-29T14:32:05;12.45;;;7.63;;
28766;SDS011;15921;52.034;20.650;2022-09-29T14:34:42;8.48;;;7.18;;
28766;SDS011;15921;52.034;20.650;2022-09-29T14:37:13;12.95;;;7.50;;
28766;SDS011;15921;52.034;20.650;2022-09-29T14:39:44;9.15;;;6.88;;
28766;SDS011;15921;52.034;20.650;2022-09-29T14:42:31;9.18;;;6.97;;
28766;SDS011;15921;52.034;20.650;2022-09-29T14:44:57;13.30;;;7.95;;
28766;SDS011;15921;52.034;20.650;2022-09-29T14:50:43;13.20;;;9.30;;
28766;SDS011;15921;52.034;20.650;2022-09-29T14:53:33;15.98;;;8.75;;
28766;SDS011;15921;52.034;20.650;2022-09-29T14:56:08;13.70;;;8.52;;
28766;SDS011;15921;52.034;20.650;2022-09-29T15:01:34;9.02;;;6.93;;
28766;SDS011;15921;52.034;20.650;2022-09-29T15:04:18;9.43;;;6.68;;
28766;SDS011;15921;52.034;20.650;2022-09-29T15:06:44;11.73;;;7.28;;
28766;SDS011;15921;52.034;20.650;2022-09-29T15:09:16;9.70;;;6.53;;
28766;SDS011;15921;52.034;20.650;2022-09-29T15:11:43;9.07;;;6.00;;
28766;SDS011;15921;52.034;20.650;2022-09-29T15:28:11;8.82;;;6.03;;
28766;SDS011;15921;52.034;20.650;2022-09-29T15:31:08;13.68;;;6.57;;
28766;SDS011;15921;52.034;20.650;2022-09-29T15:33:36;7.30;;;5.55;;
28766;SDS011;15921;52.034;20.650;2022-09-29T15:36:06;10.50;;;7.35;;
28766;SDS011;15921;52.034;20.650;2022-09-29T15:38:41;10.60;;;7.93;;
28766;SDS011;15921;52.034;20.650;2022-09-29T15:43:40;14.07;;;8.38;;
28766;SDS011;15921;52.034;20.650;2022-09-29T15:46:22;11.75;;;7.70;;
28766;SDS011;15921;52.034;20.650;2022-09-29T15:49:44;9.40;;;7.93;;
28766;SDS011;15921;52.034;20.650;2022-09-29T15:51:56;12.80;;;8.15;;
28766;SDS011;15921;52.034;20.650;2022-09-29T15:54:23;12.80;;;8.10;;
28766;SDS011;15921;52.034;20.650;2022-09-29T15:57:26;17.67;;;8.82;;
28766;SDS011;15921;52.034;20.650;2022-09-29T16:06:01;17.80;;;8.50;;
28766;SDS011;15921;52.034;20.650;2022-09-29T16:08:30;17.67;;;9.23;;
28766;SDS011;15921;52.034;20.650;2022-09-29T16:11:08;15.18;;;9.13;;
28766;SDS011;15921;52.034;20.650;2022-09-29T16:13:46;16.95;;;9.30;;
28766;SDS011;15921;52.034;20.650;2022-09-29T16:16:23;13.93;;;9.57;;
28766;SDS011;15921;52.034;20.650;2022-09-29T16:21:19;17.27;;;10.07;;
28766;SDS011;15921;52.034;20.650;2022-09-29T16:23:48;18.27;;;10.25;;
28766;SDS011;15921;52.034;20.650;2022-09-29T16:26:38;19.83;;;10.07;;
28766;SDS011;15921;52.034;20.650;2022-09-29T16:31:38;18.08;;;11.30;;
28766;SDS011;15921;52.034;20.650;2022-09-29T16:37:12;31.45;;;22.38;;
28766;SDS011;15921;52.034;20.650;2022-09-29T16:39:45;28.05;;;15.50;;
28766;SDS011;15921;52.034;20.650;2022-09-29T16:42:23;22.48;;;14.10;;
28766;SDS011;15921;52.034;20.650;2022-09-29T16:44:51;26.75;;;12.45;;
28766;SDS011;15921;52.034;20.650;2022-09-29T16:47:26;19.48;;;11.68;;
28766;SDS011;15921;52.034;20.650;2022-09-29T16:50:00;21.35;;;12.43;;
28766;SDS011;15921;52.034;20.650;2022-09-29T16:52:48;19.02;;;11.73;;
28766;SDS011;15921;52.034;20.650;2022-09-29T16:55:25;19.00;;;12.70;;
28766;SDS011;15921;52.034;20.650;2022-09-29T16:58:03;23.65;;;11.73;;
28766;SDS011;15921;52.034;20.650;2022-09-29T17:00:33;21.35;;;10.77;;
28766;SDS011;15921;52.034;20.650;2022-09-29T17:03:00;18.80;;;10.85;;
28766;SDS011;15921;52.034;20.650;2022-09-29T17:05:29;14.95;;;10.48;;
28766;SDS011;15921;52.034;20.650;2022-09-29T17:08:10;19.98;;;12.13;;
28766;SDS011;15921;52.034;20.650;2022-09-29T17:10:41;17.23;;;11.48;;
28766;SDS011;15921;52.034;20.650;2022-09-29T17:13:10;19.33;;;11.65;;
28766;SDS011;15921;52.034;20.650;2022-09-29T17:15:38;20.98;;;12.32;;
28766;SDS011;15921;52.034;20.650;2022-09-29T17:18:04;35.45;;;13.23;;
28766;SDS011;15921;52.034;20.650;2022-09-29T17:20:33;21.63;;;12.45;;
28766;SDS011;15921;52.034;20.650;2022-09-29T17:22:59;20.73;;;12.25;;
28766;SDS011;15921;52.034;20.650;2022-09-29T17:25:25;23.23;;;11.82;;
28766;SDS011;15921;52.034;20.650;2022-09-29T17:27:51;27.55;;;13.73;;
28766;SDS011;15921;52.034;20.650;2022-09-29T17:30:36;25.10;;;14.65;;
28766;SDS011;15921;52.034;20.650;2022-09-29T17:33:02;20.85;;;13.68;;
28766;SDS011;15921;52.034;20.650;2022-09-29T17:35:39;32.95;;;15.70;;
28766;SDS011;15921;52.034;20.650;2022-09-29T17:38:06;30.05;;;16.10;;
28766;SDS011;15921;52.034;20.650;2022-09-29T17:42:59;35.50;;;19.23;;
28766;SDS011;15921;52.034;20.650;2022-09-29T17:45:26;29.88;;;17.92;;
28766;SDS011;15921;52.034;20.650;2022-09-29T17:47:54;30.15;;;17.60;;
28766;SDS011;15921;52.034;20.650;2022-09-29T17:50:30;34.90;;;19.55;;
28766;SDS011;15921;52.034;20.650;2022-09-29T17:53:00;37.38;;;21.15;;
28766;SDS011;15921;52.034;20.650;2022-09-29T17:55:29;37.88;;;22.92;;
28766;SDS011;15921;52.034;20.650;2022-09-29T17:57:56;39.75;;;23.88;;
28766;SDS011;15921;52.034;20.650;2022-09-29T18:00:23;34.35;;;20.83;;
28766;SDS011;15921;52.034;20.650;2022-09-29T18:02:51;36.13;;;20.52;;
28766;SDS011;15921;52.034;20.650;2022-09-29T18:05:21;41.42;;;22.65;;
28766;SDS011;15921;52.034;20.650;2022-09-29T18:07:48;47.60;;;26.08;;
28766;SDS011;15921;52.034;20.650;2022-09-29T18:10:25;42.08;;;23.20;;
28766;SDS011;15921;52.034;20.650;2022-09-29T18:12:58;56.90;;;31.27;;
28766;SDS011;15921;52.034;20.650;2022-09-29T18:15:24;47.78;;;26.58;;
28766;SDS011;15921;52.034;20.650;2022-09-29T18:17:53;60.42;;;33.83;;
28766;SDS011;15921;52.034;20.650;2022-09-29T18:20:23;62.30;;;33.38;;
28766;SDS011;15921;52.034;20.650;2022-09-29T18:22:49;51.30;;;28.83;;
28766;SDS011;15921;52.034;20.650;2022-09-29T18:25:16;51.65;;;29.33;;
28766;SDS011;15921;52.034;20.650;2022-09-29T18:27:43;67.38;;;35.33;;
28766;SDS011;15921;52.034;20.650;2022-09-29T18:30:17;97.57;;;46.78;;
28766;SDS011;15921;52.034;20.650;2022-09-29T18:32:49;86.72;;;43.22;;